createdAt,value
2018-04-23T00:00:35.248Z,8.1
2018-04-23T00:01:35.251Z,8.1
2018-04-23T00:02:35.309Z,8.14
2018-04-23T00:03:35.244Z,8.21
2018-04-23T00:04:35.306Z,8.23
2018-04-23T00:05:35.240Z,8.13
2018-04-23T00:06:35.243Z,8.2
2018-04-23T00:07:35.415Z,8.26
2018-04-23T00:08:35.202Z,8.25
2018-04-23T00:09:35.236Z,8.2
2018-04-23T00:10:35.242Z,8.29
2018-04-23T00:11:35.234Z,8.31
2018-04-23T00:12:35.231Z,8.23
2018-04-23T00:13:35.229Z,8.49
2018-04-23T00:14:35.317Z,8.41
2018-04-23T00:15:35.254Z,8.26
2018-04-23T00:16:35.283Z,8.23
2018-04-23T00:17:35.248Z,8.13
2018-04-23T00:18:35.271Z,8.16
2018-04-23T00:19:35.232Z,8.28
2018-04-23T00:20:35.221Z,8.39
2018-04-23T00:21:35.228Z,8.04
2018-04-23T00:22:35.253Z,8.05
2018-04-23T00:23:35.386Z,8.06
2018-04-23T00:24:35.219Z,8.01
2018-04-23T00:25:35.228Z,8.1
2018-04-23T00:26:35.275Z,8.05
2018-04-23T00:27:35.224Z,8.04
2018-04-23T00:28:35.257Z,8.19
2018-04-23T00:29:35.221Z,8.19
2018-04-23T00:30:35.228Z,8.12
2018-04-23T00:31:35.245Z,8.11
2018-04-23T00:32:35.268Z,8.08
2018-04-23T00:33:35.237Z,8.21
2018-04-23T00:34:35.272Z,8.19
2018-04-23T00:35:35.232Z,8.06
2018-04-23T00:36:35.219Z,8.07
2018-04-23T00:37:35.224Z,8.26
2018-04-23T00:38:35.227Z,8.26
2018-04-23T00:39:35.259Z,8.19
2018-04-23T00:40:35.235Z,8.29
2018-04-23T00:41:35.219Z,8.22
2018-04-23T00:42:35.223Z,8.23
2018-04-23T00:43:35.491Z,8.41
2018-04-23T00:44:35.215Z,8.22
2018-04-23T00:45:35.227Z,8.27
2018-04-23T00:46:35.225Z,8.11
2018-04-23T00:47:35.304Z,8.17
2018-04-23T00:48:35.237Z,8.08
2018-04-23T00:49:35.257Z,8.14
2018-04-23T00:50:35.238Z,8.09
2018-04-23T00:51:35.224Z,8.1
2018-04-23T00:52:35.209Z,8.03
2018-04-23T00:53:35.209Z,8.08
2018-04-23T00:54:35.209Z,8.11
2018-04-23T00:55:35.268Z,8.15
2018-04-23T00:56:35.349Z,8.03
2018-04-23T00:57:35.207Z,8.07
2018-04-23T00:58:35.215Z,8.17
2018-04-23T00:59:35.223Z,8.16
2018-04-23T01:00:35.229Z,8.24
2018-04-23T01:01:35.210Z,8.34
2018-04-23T01:02:35.212Z,8.2
2018-04-23T01:03:35.541Z,8.34
2018-04-23T01:04:35.382Z,8.21
2018-04-23T01:05:35.224Z,8.21
2018-04-23T01:06:35.200Z,8.14
2018-04-23T01:07:35.193Z,8.18
2018-04-23T01:08:35.235Z,8.17
2018-04-23T01:09:35.223Z,8.22
2018-04-23T01:10:35.361Z,8.14
2018-04-23T01:11:35.226Z,8.28
2018-04-23T01:12:35.204Z,8.18
2018-04-23T01:13:35.242Z,8.11
2018-04-23T01:14:35.221Z,8.05
2018-04-23T01:15:35.220Z,8.04
2018-04-23T01:16:35.233Z,8.11
2018-04-23T01:17:35.234Z,7.99
2018-04-23T01:18:35.226Z,7.86
2018-04-23T01:19:35.241Z,7.99
2018-04-23T01:20:35.191Z,7.81
2018-04-23T01:21:35.244Z,7.91
2018-04-23T01:22:35.213Z,7.84
2018-04-23T01:23:35.279Z,7.84
2018-04-23T01:24:35.250Z,7.83
2018-04-23T01:25:35.194Z,7.85
2018-04-23T01:26:35.198Z,7.85
2018-04-23T01:27:35.207Z,7.92
2018-04-23T01:28:35.200Z,7.88
2018-04-23T01:29:35.209Z,7.83
2018-04-23T01:30:35.226Z,7.88
2018-04-23T01:31:35.193Z,7.92
2018-04-23T01:32:35.223Z,8
2018-04-23T01:33:35.198Z,7.95
2018-04-23T01:34:35.260Z,8.02
2018-04-23T01:35:35.208Z,7.9
2018-04-23T01:36:35.181Z,7.94
2018-04-23T01:37:35.225Z,7.98
2018-04-23T01:38:35.288Z,7.9
2018-04-23T01:39:35.240Z,7.93
2018-04-23T01:40:35.220Z,7.99
2018-04-23T01:41:35.256Z,7.98
2018-04-23T01:42:35.244Z,8
2018-04-23T01:43:35.217Z,7.91
2018-04-23T01:44:35.221Z,7.93
2018-04-23T01:45:35.267Z,8.01
2018-04-23T01:46:35.215Z,8.14
2018-04-23T01:47:35.173Z,8.02
2018-04-23T01:48:35.207Z,7.99
2018-04-23T01:49:35.206Z,8.21
2018-04-23T01:50:35.203Z,8.23
2018-04-23T01:51:35.217Z,8.23
2018-04-23T01:52:35.193Z,8.23
2018-04-23T01:53:35.203Z,8.18
2018-04-23T01:54:35.234Z,8.16
2018-04-23T01:55:35.193Z,8.11
2018-04-23T01:56:35.205Z,8.2
2018-04-23T01:57:35.209Z,8.13
2018-04-23T01:58:35.243Z,8.22
2018-04-23T01:59:35.208Z,8.23
2018-04-23T02:00:35.191Z,8.37
2018-04-23T02:01:35.249Z,8.25
2018-04-23T02:02:35.217Z,8.35
2018-04-23T02:03:35.191Z,8.28
2018-04-23T02:04:35.254Z,8.15
2018-04-23T02:05:35.188Z,8.26
2018-04-23T02:06:35.199Z,8.39
2018-04-23T02:07:35.212Z,8.38
2018-04-23T02:08:35.199Z,8.43
2018-04-23T02:09:35.215Z,8.3
2018-04-23T02:10:35.195Z,8.33
2018-04-23T02:11:35.199Z,8.32
2018-04-23T02:12:35.211Z,8.39
2018-04-23T02:13:35.185Z,8.42
2018-04-23T02:14:35.212Z,8.45
2018-04-23T02:15:35.192Z,8.35
2018-04-23T02:16:35.229Z,8.5
2018-04-23T02:17:35.318Z,8.49
2018-04-23T02:18:35.201Z,8.48
2018-04-23T02:19:35.251Z,8.4
2018-04-23T02:20:35.224Z,8.27
2018-04-23T02:21:35.198Z,8.23
2018-04-23T02:22:35.191Z,8.23
2018-04-23T02:23:35.225Z,8.27
2018-04-23T02:24:35.352Z,8.19
2018-04-23T02:25:35.368Z,8.28
2018-04-23T02:26:35.204Z,8.16
2018-04-23T02:27:35.198Z,8.15
2018-04-23T02:28:35.189Z,8.21
2018-04-23T02:29:35.184Z,8.19
2018-04-23T02:30:35.262Z,8.12
2018-04-23T02:31:35.226Z,8.2
2018-04-23T02:32:35.225Z,8.12
2018-04-23T02:33:35.212Z,8.17
2018-04-23T02:34:35.224Z,8.23
2018-04-23T02:35:35.141Z,8.31
2018-04-23T02:36:35.578Z,8.17
2018-04-23T02:37:35.221Z,8.18
2018-04-23T02:38:35.199Z,8.05
2018-04-23T02:39:35.307Z,8.01
2018-04-23T02:40:35.245Z,8.08
2018-04-23T02:41:35.236Z,8.04
2018-04-23T02:42:35.213Z,7.98
2018-04-23T02:43:35.240Z,8.05
2018-04-23T02:44:35.187Z,7.97
2018-04-23T02:45:35.162Z,8.02
2018-04-23T02:46:35.226Z,8.14
2018-04-23T02:47:35.194Z,8.04
2018-04-23T02:48:35.222Z,8.11
2018-04-23T02:49:35.265Z,8.07
2018-04-23T02:50:35.191Z,8.1
2018-04-23T02:51:35.278Z,8.14
2018-04-23T02:52:35.275Z,8.18
2018-04-23T02:53:35.224Z,8.48
2018-04-23T02:54:35.199Z,8.45
2018-04-23T02:55:35.170Z,8.31
2018-04-23T02:56:35.202Z,8.16
2018-04-23T02:57:35.173Z,8.09
2018-04-23T02:58:35.270Z,8.14
2018-04-23T02:59:35.182Z,8.06
2018-04-23T03:00:35.227Z,8.14
2018-04-23T03:01:35.354Z,8.25
2018-04-23T03:02:35.487Z,8.19
2018-04-23T03:03:35.301Z,8.09
2018-04-23T03:04:35.234Z,8.16
2018-04-23T03:05:35.186Z,8.29
2018-04-23T03:06:35.204Z,8.31
2018-04-23T03:07:35.177Z,8.2
2018-04-23T03:08:35.184Z,8.38
2018-04-23T03:09:35.174Z,8.26
2018-04-23T03:10:35.168Z,8.41
2018-04-23T03:11:35.180Z,8.44
2018-04-23T03:12:35.159Z,8.26
2018-04-23T03:13:35.208Z,8.23
2018-04-23T03:14:35.165Z,8.18
2018-04-23T03:15:35.155Z,8.21
2018-04-23T03:16:35.164Z,8.18
2018-04-23T03:17:35.247Z,8.2
2018-04-23T03:18:35.171Z,8.12
2018-04-23T03:19:35.179Z,8.01
2018-04-23T03:20:35.201Z,8.15
2018-04-23T03:21:35.171Z,8.05
2018-04-23T03:22:35.168Z,8.28
2018-04-23T03:23:35.184Z,8.15
2018-04-23T03:24:35.193Z,8.32
2018-04-23T03:25:35.169Z,8.33
2018-04-23T03:26:35.202Z,8.28
2018-04-23T03:27:35.155Z,8.5
2018-04-23T03:28:35.169Z,8.36
2018-04-23T03:29:35.156Z,8.23
2018-04-23T03:30:35.182Z,8.28
2018-04-23T03:31:35.184Z,8.35
2018-04-23T03:32:35.178Z,8.27
2018-04-23T03:33:35.168Z,8.35
2018-04-23T03:34:35.179Z,8.54
2018-04-23T03:35:35.178Z,8.35
2018-04-23T03:36:35.482Z,8.47
2018-04-23T03:37:35.179Z,8.56
2018-04-23T03:38:35.165Z,8.35
2018-04-23T03:39:35.156Z,8.47
2018-04-23T03:40:35.220Z,8.33
2018-04-23T03:41:35.173Z,8.37
2018-04-23T03:42:35.157Z,8.41
2018-04-23T03:43:35.152Z,8.37
2018-04-23T03:44:35.156Z,8.4
2018-04-23T03:45:35.169Z,8.31
2018-04-23T03:46:35.152Z,8.41
2018-04-23T03:47:35.191Z,8.34
2018-04-23T03:48:35.245Z,8.45
2018-04-23T03:49:35.166Z,8.57
2018-04-23T03:50:35.382Z,8.4
2018-04-23T03:51:35.211Z,8.42
2018-04-23T03:52:35.181Z,8.29
2018-04-23T03:53:35.140Z,8.34
2018-04-23T03:54:35.159Z,8.38
2018-04-23T03:55:35.206Z,8.26
2018-04-23T03:56:35.514Z,8.41
2018-04-23T03:57:35.143Z,8.37
2018-04-23T03:58:35.314Z,8.37
2018-04-23T03:59:35.130Z,8.47
2018-04-23T04:00:35.169Z,8.38
2018-04-23T04:01:35.223Z,8.37
2018-04-23T04:02:35.164Z,8.32
2018-04-23T04:03:35.145Z,8.31
2018-04-23T04:04:35.180Z,8.45
2018-04-23T04:05:35.139Z,8.47
2018-04-23T04:06:35.164Z,8.34
2018-04-23T04:07:35.157Z,8.49
2018-04-23T04:08:35.163Z,8.4
2018-04-23T04:09:35.187Z,8.46
2018-04-23T04:10:35.517Z,8.54
2018-04-23T04:11:35.144Z,8.55
2018-04-23T04:12:35.165Z,8.38
2018-04-23T04:13:35.156Z,8.46
2018-04-23T04:14:35.155Z,8.66
2018-04-23T04:15:35.227Z,8.42
2018-04-23T04:16:35.299Z,8.38
2018-04-23T04:17:35.176Z,8.45
2018-04-23T04:18:35.160Z,8.62
2018-04-23T04:19:35.168Z,8.62
2018-04-23T04:20:35.173Z,8.53
2018-04-23T04:21:35.148Z,8.51
2018-04-23T04:22:35.132Z,8.52
2018-04-23T04:23:35.294Z,8.65
2018-04-23T04:24:35.581Z,8.61
2018-04-23T04:25:35.154Z,8.68
2018-04-23T04:26:35.135Z,8.75
2018-04-23T04:27:35.134Z,8.68
2018-04-23T04:28:35.166Z,8.63
2018-04-23T04:29:35.149Z,8.66
2018-04-23T04:30:35.189Z,8.71
2018-04-23T04:31:35.195Z,8.81
2018-04-23T04:32:35.206Z,8.64
2018-04-23T04:33:35.161Z,8.82
2018-04-23T04:34:35.142Z,8.74
2018-04-23T04:35:35.733Z,8.77
2018-04-23T04:36:35.175Z,8.74
2018-04-23T04:37:35.171Z,8.77
2018-04-23T04:38:35.183Z,8.91
2018-04-23T04:39:35.134Z,8.78
2018-04-23T04:40:35.155Z,8.78
2018-04-23T04:41:35.278Z,8.79
2018-04-23T04:42:35.145Z,8.9
2018-04-23T04:43:35.136Z,8.76
2018-04-23T04:44:35.135Z,8.89
2018-04-23T04:45:35.351Z,8.92
2018-04-23T04:46:35.157Z,8.9
2018-04-23T04:47:35.117Z,8.83
2018-04-23T04:48:35.124Z,8.8
2018-04-23T04:49:35.130Z,8.81
2018-04-23T04:50:35.128Z,8.6
2018-04-23T04:51:35.171Z,8.7
2018-04-23T04:52:35.125Z,8.97
2018-04-23T04:53:35.143Z,8.85
2018-04-23T04:54:35.196Z,8.96
2018-04-23T04:55:35.161Z,9.02
2018-04-23T04:56:35.153Z,9.02
2018-04-23T04:57:35.132Z,9.01
2018-04-23T04:58:35.135Z,9.04
2018-04-23T04:59:35.151Z,9.18
2018-04-23T05:00:35.136Z,8.89
2018-04-23T05:01:35.218Z,8.98
2018-04-23T05:02:35.117Z,9.24
2018-04-23T05:03:35.109Z,9.24
2018-04-23T05:04:35.151Z,9.07
2018-04-23T05:05:35.119Z,9.3
2018-04-23T05:06:35.125Z,9.26
2018-04-23T05:07:35.131Z,9.19
2018-04-23T05:08:35.293Z,9.19
2018-04-23T05:09:35.128Z,9.29
2018-04-23T05:10:35.276Z,9.26
2018-04-23T05:11:35.252Z,9.15
2018-04-23T05:12:35.125Z,9.12
2018-04-23T05:13:35.219Z,9.03
2018-04-23T05:14:35.351Z,9.12
2018-04-23T05:15:35.160Z,9.18
2018-04-23T05:16:35.176Z,9.06
2018-04-23T05:17:35.120Z,8.96
2018-04-23T05:18:35.142Z,8.9
2018-04-23T05:19:35.337Z,9.02
2018-04-23T05:20:35.130Z,9.06
2018-04-23T05:21:35.153Z,9
2018-04-23T05:22:35.134Z,9.33
2018-04-23T05:23:35.268Z,9.21
2018-04-23T05:24:35.144Z,9.44
2018-04-23T05:25:35.259Z,9.3
2018-04-23T05:26:35.150Z,9.25
2018-04-23T05:27:35.173Z,9.31
2018-04-23T05:28:35.175Z,9.41
2018-04-23T05:29:35.179Z,9.34
2018-04-23T05:30:35.188Z,9.31
2018-04-23T05:31:35.141Z,9.47
2018-04-23T05:32:35.158Z,9.33
2018-04-23T05:33:35.298Z,9.58
2018-04-23T05:34:35.154Z,9.33
2018-04-23T05:35:35.181Z,9.26
2018-04-23T05:36:35.134Z,9.38
2018-04-23T05:37:35.473Z,9.45
2018-04-23T05:38:35.304Z,9.3
2018-04-23T05:39:35.175Z,9.32
2018-04-23T05:40:35.286Z,9.36
2018-04-23T05:41:35.138Z,9.69
2018-04-23T05:42:35.199Z,9.76
2018-04-23T05:43:35.161Z,9.73
2018-04-23T05:44:35.193Z,9.6
2018-04-23T05:45:35.177Z,9.39
2018-04-23T05:46:35.153Z,9.52
2018-04-23T05:47:35.187Z,9.48
2018-04-23T05:48:35.141Z,9.38
2018-04-23T05:49:35.164Z,9.51
2018-04-23T05:50:35.186Z,9.49
2018-04-23T05:51:35.146Z,9.55
2018-04-23T05:52:35.298Z,9.6
2018-04-23T05:53:35.159Z,9.56
2018-04-23T05:54:35.197Z,9.65
2018-04-23T05:55:35.154Z,9.62
2018-04-23T05:56:35.199Z,9.44
2018-04-23T05:57:35.141Z,9.61
2018-04-23T05:58:35.150Z,9.66
2018-04-23T05:59:35.165Z,9.77
2018-04-23T06:00:35.155Z,9.76
2018-04-23T06:01:35.170Z,9.9
2018-04-23T06:02:35.425Z,9.78
2018-04-23T06:03:35.364Z,9.78
2018-04-23T06:04:35.173Z,9.81
2018-04-23T06:05:35.139Z,9.88
2018-04-23T06:06:35.160Z,10.1
2018-04-23T06:07:35.292Z,10.05
2018-04-23T06:08:35.191Z,9.94
2018-04-23T06:09:35.283Z,10
2018-04-23T06:10:35.165Z,10.06
2018-04-23T06:11:35.182Z,10.02
2018-04-23T06:12:35.205Z,9.95
2018-04-23T06:13:35.149Z,10.13
2018-04-23T06:14:35.163Z,10.24
2018-04-23T06:15:35.219Z,10.3
2018-04-23T06:16:35.207Z,10.82
2018-04-23T06:17:35.585Z,10.93
2018-04-23T06:18:35.297Z,11.07
2018-04-23T06:19:35.217Z,11.23
2018-04-23T06:20:35.186Z,11.41
2018-04-23T06:21:35.178Z,11.9
2018-04-23T06:22:35.544Z,11.89
2018-04-23T06:23:35.162Z,12.09
2018-04-23T06:24:35.298Z,12.17
2018-04-23T06:25:35.158Z,12.7
2018-04-23T06:26:35.170Z,12.74
2018-04-23T06:27:35.181Z,13.04
2018-04-23T06:28:35.204Z,13.06
2018-04-23T06:29:35.180Z,12.53
2018-04-23T06:30:35.176Z,13.22
2018-04-23T06:31:35.182Z,12.93
2018-04-23T06:32:35.203Z,13.1
2018-04-23T06:33:35.164Z,13.27
2018-04-23T06:34:35.216Z,12.87
2018-04-23T06:35:35.208Z,13.15
2018-04-23T06:36:35.406Z,13.04
2018-04-23T06:37:35.201Z,12.83
2018-04-23T06:38:35.173Z,13.41
2018-04-23T06:39:35.221Z,13.32
2018-04-23T06:40:35.176Z,13.45
2018-04-23T06:41:35.333Z,12.74
2018-04-23T06:42:35.226Z,13.27
2018-04-23T06:43:35.268Z,13.39
2018-04-23T06:44:35.215Z,13.12
2018-04-23T06:45:35.219Z,12.92
2018-04-23T06:46:35.204Z,13.37
2018-04-23T06:47:35.187Z,13.55
2018-04-23T06:48:35.176Z,13.37
2018-04-23T06:49:35.179Z,13.54
2018-04-23T06:50:35.179Z,13.2
2018-04-23T06:51:35.210Z,13.43
2018-04-23T06:52:35.198Z,13.54
2018-04-23T06:53:35.322Z,13.72
2018-04-23T06:54:35.520Z,13.39
2018-04-23T06:55:35.233Z,13.39
2018-04-23T06:56:35.197Z,13.54
2018-04-23T06:57:35.189Z,13.03
2018-04-23T06:58:35.183Z,13.58
2018-04-23T06:59:35.231Z,13.79
2018-04-23T07:00:35.215Z,13.47
2018-04-23T07:01:35.202Z,13.24
2018-04-23T07:02:35.243Z,13.47
2018-04-23T07:03:35.205Z,13.08
2018-04-23T07:04:35.237Z,13.5
2018-04-23T07:05:35.175Z,13.16
2018-04-23T07:06:35.189Z,13.32
2018-04-23T07:07:35.182Z,13.21
2018-04-23T07:08:35.203Z,12.9
2018-04-23T07:09:35.203Z,12.79
2018-04-23T07:10:35.221Z,13.03
2018-04-23T07:11:35.199Z,13.28
2018-04-23T07:12:35.173Z,13.44
2018-04-23T07:13:35.169Z,13.28
2018-04-23T07:14:35.186Z,13.22
2018-04-23T07:15:35.219Z,13.15
2018-04-23T07:16:35.461Z,13.22
2018-04-23T07:17:35.212Z,13.27
2018-04-23T07:18:35.188Z,13.32
2018-04-23T07:19:35.196Z,13.42
2018-04-23T07:20:35.262Z,13.82
2018-04-23T07:21:35.241Z,13.76
2018-04-23T07:22:35.301Z,13.76
2018-04-23T07:23:35.178Z,13.73
2018-04-23T07:24:35.229Z,13.78
2018-04-23T07:25:35.222Z,13.8
2018-04-23T07:26:35.221Z,13.89
2018-04-23T07:27:35.250Z,13.79
2018-04-23T07:28:35.180Z,13.86
2018-04-23T07:29:35.207Z,13.88
2018-04-23T07:30:35.560Z,13.82
2018-04-23T07:31:35.205Z,13.82
2018-04-23T07:32:35.233Z,13.63
2018-04-23T07:33:35.242Z,14.01
2018-04-23T07:34:35.213Z,14.17
2018-04-23T07:35:35.231Z,14.02
2018-04-23T07:36:35.232Z,13.96
2018-04-23T07:37:35.196Z,14.1
2018-04-23T07:38:35.211Z,13.91
2018-04-23T07:39:35.212Z,13.71
2018-04-23T07:40:35.227Z,13.79
2018-04-23T07:41:35.228Z,13.75
2018-04-23T07:42:35.212Z,13.74
2018-04-23T07:43:35.198Z,13.84
2018-04-23T07:44:35.217Z,13.81
2018-04-23T07:45:35.333Z,13.83
2018-04-23T07:46:35.246Z,13.75
2018-04-23T07:47:35.283Z,13.65
2018-04-23T07:48:35.307Z,13.89
2018-04-23T07:49:35.222Z,13.87
2018-04-23T07:50:37.194Z,13.81
2018-04-23T07:51:35.224Z,13.81
2018-04-23T07:52:35.206Z,14.06
2018-04-23T07:53:35.213Z,14
2018-04-23T07:54:35.210Z,13.97
2018-04-23T07:55:35.199Z,13.97
2018-04-23T07:56:35.253Z,13.97
2018-04-23T07:57:35.239Z,14.42
2018-04-23T07:58:35.257Z,14.2
2018-04-23T07:59:35.280Z,14.34
2018-04-23T08:00:35.226Z,14.01
2018-04-23T08:01:35.261Z,14.32
2018-04-23T08:02:35.226Z,14.22
2018-04-23T08:03:35.232Z,14.31
2018-04-23T08:04:35.267Z,14.33
2018-04-23T08:05:35.245Z,14.2
2018-04-23T08:06:35.418Z,14.35
2018-04-23T08:07:35.224Z,14.37
2018-04-23T08:08:35.208Z,14.44
2018-04-23T08:09:35.246Z,14.33
2018-04-23T08:10:35.296Z,14.49
2018-04-23T08:11:35.252Z,14.45
2018-04-23T08:12:35.545Z,14.36
2018-04-23T08:13:35.242Z,14.21
2018-04-23T08:14:35.215Z,14.22
2018-04-23T08:15:35.249Z,14.31
2018-04-23T08:16:35.278Z,14.19
2018-04-23T08:17:35.279Z,14.24
2018-04-23T08:18:35.231Z,14.4
2018-04-23T08:19:35.262Z,14.15
2018-04-23T08:20:35.239Z,14.16
2018-04-23T08:21:35.236Z,14.23
2018-04-23T08:22:35.438Z,14.33
2018-04-23T08:23:35.278Z,14.23
2018-04-23T08:24:35.273Z,14.35
2018-04-23T08:25:35.222Z,14.12
2018-04-23T08:26:36.020Z,14.08
2018-04-23T08:27:35.275Z,14.42
2018-04-23T08:28:35.233Z,14.37
2018-04-23T08:29:35.252Z,14.2
2018-04-23T08:30:35.274Z,14.27
2018-04-23T08:31:35.290Z,14.19
2018-04-23T08:32:35.240Z,14.4
2018-04-23T08:33:35.296Z,14.46
2018-04-23T08:34:35.271Z,14.44
2018-04-23T08:35:35.347Z,14.51
2018-04-23T08:36:35.264Z,14.5
2018-04-23T08:37:35.575Z,14.61
2018-04-23T08:38:35.313Z,14.54
2018-04-23T08:39:35.314Z,14.55
2018-04-23T08:40:35.246Z,14.47
2018-04-23T08:41:35.244Z,14.43
2018-04-23T08:42:35.241Z,14.36
2018-04-23T08:43:35.292Z,14.44
2018-04-23T08:44:35.246Z,14.66
2018-04-23T08:45:35.240Z,14.48
2018-04-23T08:46:35.265Z,14.47
2018-04-23T08:47:35.253Z,14.44
2018-04-23T08:48:35.270Z,14.58
2018-04-23T08:49:35.353Z,14.51
2018-04-23T08:50:35.250Z,14.46
2018-04-23T08:51:35.229Z,14.6
2018-04-23T08:52:35.260Z,14.54
2018-04-23T08:53:35.304Z,14.58
2018-04-23T08:54:35.427Z,14.38
2018-04-23T08:55:35.236Z,14.53
2018-04-23T08:56:35.320Z,14.5
2018-04-23T08:57:35.407Z,14.56
2018-04-23T08:58:35.242Z,14.44
2018-04-23T08:59:35.365Z,14.61
2018-04-23T09:00:35.272Z,14.61
2018-04-23T09:01:35.247Z,14.63
2018-04-23T09:02:35.283Z,14.79
2018-04-23T09:03:35.312Z,14.54
2018-04-23T09:04:35.435Z,14.65
2018-04-23T09:05:35.262Z,14.61
2018-04-23T09:06:35.265Z,14.6
2018-04-23T09:07:35.276Z,14.85
2018-04-23T09:08:35.724Z,14.59
2018-04-23T09:09:35.387Z,14.71
2018-04-23T09:10:35.251Z,14.78
2018-04-23T09:11:35.291Z,14.92
2018-04-23T09:12:35.265Z,14.9
2018-04-23T09:13:35.387Z,14.83
2018-04-23T09:14:35.308Z,14.79
2018-04-23T09:15:35.258Z,14.93
2018-04-23T09:16:35.630Z,14.9
2018-04-23T09:17:35.336Z,15.12
2018-04-23T09:18:35.279Z,14.83
2018-04-23T09:19:35.271Z,14.86
2018-04-23T09:20:35.248Z,15.04
2018-04-23T09:21:35.285Z,15.19
2018-04-23T09:22:35.277Z,14.95
2018-04-23T09:23:35.295Z,15.01
2018-04-23T09:24:35.274Z,15.21
2018-04-23T09:25:35.248Z,15.3
2018-04-23T09:26:35.275Z,15.11
2018-04-23T09:27:35.277Z,14.99
2018-04-23T09:28:35.303Z,14.94
2018-04-23T09:29:35.281Z,15.04
2018-04-23T09:30:35.266Z,14.98
2018-04-23T09:31:35.670Z,15.09
2018-04-23T09:32:35.265Z,15.02
2018-04-23T09:33:35.278Z,14.97
2018-04-23T09:34:35.288Z,15.04
2018-04-23T09:35:35.292Z,15.06
2018-04-23T09:36:35.582Z,15.12
2018-04-23T09:37:35.305Z,15.34
2018-04-23T09:38:35.254Z,15.33
2018-04-23T09:39:35.303Z,15.25
2018-04-23T09:40:35.258Z,15.42
2018-04-23T09:41:35.274Z,15.02
2018-04-23T09:42:35.302Z,15.35
2018-04-23T09:43:35.317Z,15.11
2018-04-23T09:44:35.950Z,15.4
2018-04-23T09:45:35.304Z,15.51
2018-04-23T09:46:35.327Z,15.63
2018-04-23T09:47:35.353Z,15.56
2018-04-23T09:48:35.264Z,15.28
2018-04-23T09:49:35.348Z,15.39
2018-04-23T09:50:35.297Z,15.3
2018-04-23T09:51:35.257Z,15.68
2018-04-23T09:52:35.299Z,15.6
2018-04-23T09:53:35.320Z,15.16
2018-04-23T09:54:35.323Z,15.31
2018-04-23T09:55:35.305Z,15.14
2018-04-23T09:56:35.281Z,15.08
2018-04-23T09:57:35.318Z,15.37
2018-04-23T09:58:35.710Z,15.31
2018-04-23T09:59:35.415Z,15.09
2018-04-23T10:00:35.311Z,15.38
2018-04-23T10:01:35.311Z,15.56
2018-04-23T10:02:35.307Z,15.61
2018-04-23T10:03:35.429Z,15.56
2018-04-23T10:04:35.338Z,15.69
2018-04-23T10:05:35.366Z,15.72
2018-04-23T10:06:35.303Z,15.95
2018-04-23T10:07:35.380Z,15.77
2018-04-23T10:08:35.323Z,15.63
2018-04-23T10:09:35.309Z,15.62
2018-04-23T10:10:35.340Z,15.92
2018-04-23T10:11:35.435Z,16
2018-04-23T10:12:35.301Z,15.84
2018-04-23T10:13:35.316Z,15.98
2018-04-23T10:14:35.303Z,16.01
2018-04-23T10:15:35.321Z,15.68
2018-04-23T10:16:35.330Z,15.79
2018-04-23T10:17:35.348Z,15.38
2018-04-23T10:18:35.703Z,15.32
2018-04-23T10:19:35.402Z,15.44
2018-04-23T10:20:35.460Z,15.73
2018-04-23T10:21:35.325Z,15.58
2018-04-23T10:22:35.327Z,15.33
2018-04-23T10:23:35.318Z,15.16
2018-04-23T10:24:35.315Z,15.39
2018-04-23T10:25:35.401Z,15.61
2018-04-23T10:26:35.364Z,15.88
2018-04-23T10:27:35.322Z,15.82
2018-04-23T10:28:35.365Z,15.82
2018-04-23T10:29:35.319Z,15.9
2018-04-23T10:30:35.361Z,16.05
2018-04-23T10:31:35.419Z,15.58
2018-04-23T10:32:35.325Z,15.85
2018-04-23T10:33:35.307Z,15.85
2018-04-23T10:34:35.334Z,15.76
2018-04-23T10:35:35.721Z,15.88
2018-04-23T10:36:35.310Z,15.82
2018-04-23T10:37:35.354Z,16.01
2018-04-23T10:38:35.330Z,15.65
2018-04-23T10:39:35.294Z,15.45
2018-04-23T10:40:35.378Z,15.27
2018-04-23T10:41:35.428Z,15.16
2018-04-23T10:42:35.359Z,15.21
2018-04-23T10:43:35.350Z,15.33
2018-04-23T10:44:35.293Z,15.59
2018-04-23T10:45:35.784Z,15.43
2018-04-23T10:46:35.338Z,15.46
2018-04-23T10:47:35.354Z,15.25
2018-04-23T10:48:35.471Z,15.24
2018-04-23T10:49:35.344Z,14.87
2018-04-23T10:50:35.398Z,15.24
2018-04-23T10:51:35.323Z,15.06
2018-04-23T10:52:35.333Z,15.29
2018-04-23T10:53:35.371Z,15.31
2018-04-23T10:54:35.371Z,15.34
2018-04-23T10:55:35.371Z,15.27
2018-04-23T10:56:35.334Z,15.05
2018-04-23T10:57:35.349Z,14.88
2018-04-23T10:58:35.346Z,14.74
2018-04-23T10:59:35.365Z,14.87
2018-04-23T11:00:35.330Z,14.6
2018-04-23T11:01:35.355Z,14.9
2018-04-23T11:02:35.404Z,14.91
2018-04-23T11:03:35.351Z,14.78
2018-04-23T11:04:35.335Z,14.48
2018-04-23T11:05:35.364Z,14.66
2018-04-23T11:06:35.382Z,14.66
2018-04-23T11:07:35.334Z,14.7
2018-04-23T11:08:35.325Z,14.63
2018-04-23T11:09:35.558Z,14.73
2018-04-23T11:10:35.450Z,14.69
2018-04-23T11:11:35.360Z,14.8
2018-04-23T11:12:35.364Z,14.72
2018-04-23T11:13:35.378Z,14.9
2018-04-23T11:14:35.363Z,14.99
2018-04-23T11:15:35.502Z,15.03
2018-04-23T11:16:35.402Z,15.06
2018-04-23T11:17:35.394Z,15.06
2018-04-23T11:18:35.331Z,14.85
2018-04-23T11:19:35.429Z,14.74
2018-04-23T11:20:35.367Z,14.6
2018-04-23T11:21:35.327Z,14.69
2018-04-23T11:22:35.387Z,14.54
2018-04-23T11:23:35.433Z,14.38
2018-04-23T11:24:35.353Z,14.43
2018-04-23T11:25:35.368Z,14.13
2018-04-23T11:26:35.403Z,14.14
2018-04-23T11:27:35.374Z,14.2
2018-04-23T11:28:35.563Z,14.1
2018-04-23T11:29:35.332Z,14.26
2018-04-23T11:30:35.395Z,14.34
2018-04-23T11:31:35.506Z,14.21
2018-04-23T11:32:35.690Z,14.33
2018-04-23T11:33:35.391Z,14.33
2018-04-23T11:34:35.358Z,14.4
2018-04-23T11:35:35.348Z,14.17
2018-04-23T11:36:35.368Z,14.16
2018-04-23T11:37:35.396Z,14.15
2018-04-23T11:38:35.382Z,14.02
2018-04-23T11:39:35.366Z,14.27
2018-04-23T11:40:35.343Z,14.03
2018-04-23T11:41:35.375Z,14.12
2018-04-23T11:42:35.390Z,14.16
2018-04-23T11:43:35.354Z,14.02
2018-04-23T11:44:35.343Z,14.16
2018-04-23T11:45:35.383Z,14.44
2018-04-23T11:46:35.465Z,14.34
2018-04-23T11:47:35.366Z,14.43
2018-04-23T11:48:35.370Z,14.45
2018-04-23T11:49:35.376Z,14.58
2018-04-23T11:50:35.364Z,14.64
2018-04-23T11:51:35.422Z,14.63
2018-04-23T11:52:35.383Z,14.56
2018-04-23T11:53:35.397Z,14.44
2018-04-23T11:54:35.399Z,14.36
2018-04-23T11:55:35.364Z,14.33
2018-04-23T11:56:35.362Z,14.41
2018-04-23T11:57:35.399Z,14.57
2018-04-23T11:58:35.530Z,14.78
2018-04-23T11:59:35.372Z,14.57
2018-04-23T12:00:35.354Z,14.72
2018-04-23T12:01:35.373Z,14.57
2018-04-23T12:02:35.359Z,14.55
2018-04-23T12:03:35.387Z,14.58
2018-04-23T12:04:35.787Z,14.43
2018-04-23T12:05:35.485Z,14.35
2018-04-23T12:06:35.383Z,14.36
2018-04-23T12:07:35.398Z,14.59
2018-04-23T12:08:35.363Z,14.5
2018-04-23T12:09:35.518Z,14.62
2018-04-23T12:10:35.364Z,14.66
2018-04-23T12:11:35.372Z,14.68
2018-04-23T12:12:35.382Z,14.58
2018-04-23T12:13:35.399Z,14.6
2018-04-23T12:14:35.426Z,14.7
2018-04-23T12:15:35.383Z,14.55
2018-04-23T12:16:35.390Z,14.69
2018-04-23T12:17:35.395Z,14.53
2018-04-23T12:18:35.372Z,14.6
2018-04-23T12:19:35.403Z,14.61
2018-04-23T12:20:35.405Z,14.44
2018-04-23T12:21:35.593Z,14.29
2018-04-23T12:22:35.413Z,14.51
2018-04-23T12:23:35.540Z,14.64
2018-04-23T12:24:35.400Z,14.47
2018-04-23T12:25:35.407Z,14.52
2018-04-23T12:26:35.447Z,14.71
2018-04-23T12:27:35.434Z,14.6
2018-04-23T12:28:35.400Z,14.72
2018-04-23T12:29:35.432Z,14.73
2018-04-23T12:30:35.477Z,14.52
2018-04-23T12:31:35.411Z,14.7
2018-04-23T12:32:35.491Z,14.5
2018-04-23T12:33:35.407Z,14.34
2018-04-23T12:34:35.785Z,14.39
2018-04-23T12:35:35.431Z,14.55
2018-04-23T12:36:35.561Z,14.44
2018-04-23T12:37:37.045Z,14.59
2018-04-23T12:38:35.452Z,14.68
2018-04-23T12:39:35.466Z,14.68
2018-04-23T12:40:35.418Z,14.56
2018-04-23T12:41:35.400Z,14.54
2018-04-23T12:42:35.397Z,14.63
2018-04-23T12:43:35.386Z,14.67
2018-04-23T12:44:35.448Z,14.84
2018-04-23T12:45:35.424Z,14.69
2018-04-23T12:46:35.426Z,14.61
2018-04-23T12:47:35.369Z,14.77
2018-04-23T12:48:35.391Z,14.61
2018-04-23T12:49:35.440Z,14.76
2018-04-23T12:50:35.420Z,14.73
2018-04-23T12:51:35.409Z,14.88
2018-04-23T12:52:35.385Z,14.77
2018-04-23T12:53:35.403Z,14.8
2018-04-23T12:54:35.418Z,15.02
2018-04-23T12:55:35.438Z,14.8
2018-04-23T12:56:35.422Z,15.12
2018-04-23T12:57:35.422Z,15.05
2018-04-23T12:58:35.447Z,15.07
2018-04-23T12:59:35.401Z,15.08
2018-04-23T13:00:35.410Z,15.1
2018-04-23T13:01:35.408Z,15.12
2018-04-23T13:02:35.395Z,15.24
2018-04-23T13:03:35.518Z,14.86
2018-04-23T13:04:35.470Z,14.97
2018-04-23T13:05:35.468Z,15.02
2018-04-23T13:06:39.413Z,15.26
2018-04-23T13:07:35.496Z,15.22